Time;durP1;ratioP1;P1;durP2;ratioP2;P2;SDS_P1;SDS_P2;PMS_P1;PMS_P2;Temp;Humidity;BMP_temperature;BMP_pressure;BME280_temperature;BME280_humidity;BME280_pressure;Samples;Min_cycle;Max_cycle;Signal;HPM_P1;HPM_P2
2021/05/30 04:52:36;;;;;;;;;;;8.20;99.90;;;;;;4548068;23;20017;-67
2021/05/30 04:55:03;;;;;;;;;;;8.40;99.90;;;;;;4952345;28;19932;-67
2021/05/30 04:57:29;;;;;;;;;;;8.40;99.90;;;;;;4952706;29;19930;-67
2021/05/30 04:59:55;;;;;;;;;;;8.50;99.90;;;;;;4953150;28;19973;-66
2021/05/30 05:02:22;;;;;;;;;;;8.60;99.90;;;;;;4952654;28;19923;-68
2021/05/30 05:04:48;;;;;;;;;;;8.80;99.90;;;;;;4952789;29;19977;-68
2021/05/30 05:07:14;;;;;;;;;;;9.00;99.90;;;;;;4950951;29;19927;-67
2021/05/30 05:09:41;;;;;;;;;;;9.20;99.90;;;;;;4953002;28;20371;-67
2021/05/30 05:12:09;;;;;;;;;;;9.50;99.90;;;;;;4952470;28;19926;-67
2021/05/30 05:14:35;;;;;;;;;;;9.80;99.90;;;;;;4952147;28;19922;-67
2021/05/30 05:17:01;;;;;;;;;;;10.30;99.90;;;;;;4952315;29;19926;-67
2021/05/30 05:19:28;;;;;;;;;;;11.40;99.90;;;;;;4952696;28;20378;-67
2021/05/30 05:21:54;;;;;;;;;;;12.20;99.90;;;;;;4952170;28;20058;-68
2021/05/30 05:24:20;;;;;;;;;;;12.70;99.90;;;;;;4952555;29;19922;-67
2021/05/30 05:26:48;;;;;;;;;;;13.30;99.90;;;;;;4952225;28;19926;-68
2021/05/30 05:29:14;;;;;;;;;;;13.80;99.90;;;;;;4951075;29;19929;-66
2021/05/30 05:31:40;;;;;;;;;;;14.20;99.90;;;;;;4952142;29;19992;-68
2021/05/30 05:34:07;;;;;;;;;;;14.10;99.90;;;;;;4952337;28;19981;-68
2021/05/30 05:36:33;;;;;;;;;;;14.10;99.90;;;;;;4952040;28;20275;-68
2021/05/30 05:39:00;;;;;;;;;;;14.20;99.90;;;;;;4952232;28;19929;-68
2021/05/30 05:41:26;;;;;;;;;;;14.80;99.90;;;;;;4951876;29;19923;-68
2021/05/30 05:43:53;;;;;;;;;;;14.90;99.90;;;;;;4951913;28;19926;-68
2021/05/30 05:46:20;;;;;;;;;;;15.10;99.90;;;;;;4951503;29;19933;-68
2021/05/30 05:48:46;;;;;;;;;;;15.00;99.90;;;;;;4950176;29;20017;-68
2021/05/30 05:51:12;;;;;;;;;;;15.10;99.90;;;;;;4951380;28;20021;-68
2021/05/30 05:53:39;;;;;;;;;;;15.20;99.90;;;;;;4951646;28;19929;-66
2021/05/30 05:56:05;;;;;;;;;;;15.30;99.90;;;;;;4951620;29;19926;-67
2021/05/30 05:58:32;;;;;;;;;;;16.00;99.90;;;;;;4951759;28;19933;-66
2021/05/30 06:00:59;;;;;;;;;;;15.90;99.90;;;;;;4950205;28;20062;-67
2021/05/30 06:03:25;;;;;;;;;;;15.40;99.90;;;;;;4951354;28;19926;-66
2021/05/30 06:05:52;;;;;;;;;;;15.60;99.90;;;;;;4951494;29;19926;-66
2021/05/30 06:08:18;;;;;;;;;;;16.20;99.90;;;;;;4951820;28;20346;-67
2021/05/30 06:10:45;;;;;;;;;;;16.00;99.90;;;;;;4949792;28;19926;-67
2021/05/30 06:13:11;;;;;;;;;;;16.00;99.90;;;;;;4951104;28;19923;-66
2021/05/30 06:15:39;;;;;;;;;;;16.20;99.90;;;;;;4951534;28;19970;-66
2021/05/30 06:18:09;;;;;;;;;;;16.80;99.90;;;;;;4951354;29;19922;-68
2021/05/30 06:20:36;;;;;;;;;;;17.10;99.90;;;;;;4951537;28;20358;-67
2021/05/30 06:23:02;;;;;;;;;;;17.30;99.90;;;;;;4951099;29;19962;-67
2021/05/30 06:25:29;;;;;;;;;;;17.20;99.90;;;;;;4951679;28;19965;-67
2021/05/30 06:27:56;;;;;;;;;;;17.60;99.90;;;;;;4953655;29;19922;-67
2021/05/30 06:30:23;;;;;;;;;;;17.20;99.90;;;;;;4954879;28;20029;-66
2021/05/30 06:32:49;;;;;;;;;;;17.40;99.90;;;;;;4954942;29;19930;-67
2021/05/30 06:35:17;;;;;;;;;;;17.40;99.90;;;;;;4955283;28;19993;-67
2021/05/30 06:37:43;;;;;;;;;;;17.10;99.90;;;;;;4955090;29;20326;-67
2021/05/30 06:40:10;;;;;;;;;;;17.50;99.90;;;;;;4955611;29;20131;-67
2021/05/30 06:42:36;;;;;;;;;;;17.50;99.90;;;;;;4954877;29;19926;-67
2021/05/30 06:45:03;;;;;;;;;;;18.00;99.90;;;;;;4953994;29;19926;-68
2021/05/30 06:47:29;;;;;;;;;;;17.80;99.90;;;;;;4953101;29;19922;-67
2021/05/30 06:49:56;;;;;;;;;;;18.30;99.90;;;;;;4947594;29;20368;-67
2021/05/30 06:52:23;;;;;;;;;;;18.40;99.90;;;;;;4948573;29;19926;-66
2021/05/30 06:54:49;;;;;;;;;;;18.40;99.90;;;;;;4947810;29;20286;-66
2021/05/30 06:57:16;;;;;;;;;;;19.10;99.90;;;;;;4953920;29;20013;-67
2021/05/30 06:59:42;;;;;;;;;;;19.20;99.90;;;;;;4954090;28;19937;-66
2021/05/30 07:02:09;;;;;;;;;;;18.30;99.90;;;;;;4951407;29;19922;-66
2021/05/30 07:04:35;;;;;;;;;;;18.20;99.90;;;;;;4949377;29;19973;-66
2021/05/30 07:07:02;;;;;;;;;;;18.30;99.90;;;;;;4946990;29;19929;-66
2021/05/30 07:09:29;;;;;;;;;;;18.20;99.90;;;;;;4950441;28;20131;-66
2021/05/30 07:11:55;;;;;;;;;;;18.50;99.90;;;;;;4952828;29;20480;-67
2021/05/30 07:14:22;;;;;;;;;;;18.90;99.90;;;;;;4954332;29;19930;-67
2021/05/30 07:16:48;;;;;;;;;;;19.30;99.90;;;;;;4951534;29;19926;-68
2021/05/30 07:19:14;;;;;;;;;;;19.70;99.90;;;;;;4948770;29;20338;-67
2021/05/30 07:21:41;;;;;;;;;;;20.20;99.90;;;;;;4950793;28;20057;-68
2021/05/30 07:24:07;;;;;;;;;;;20.30;99.90;;;;;;4949592;28;19926;-68
2021/05/30 07:26:37;;;;;;;;;;;20.20;99.90;;;;;;4946695;29;19922;-69
2021/05/30 07:29:03;;;;;;;;;;;20.20;99.90;;;;;;4947932;29;19961;-67
2021/05/30 07:31:30;;;;;;;;;;;20.40;99.90;;;;;;4943187;28;19926;-68
2021/05/30 07:33:56;;;;;;;;;;;20.30;99.90;;;;;;4942032;29;20378;-68
2021/05/30 07:36:24;;;;;;;;;;;20.70;99.90;;;;;;4933770;29;19927;-68
2021/05/30 07:38:50;;;;;;;;;;;20.60;99.90;;;;;;4952803;28;19926;-69
2021/05/30 07:41:17;;;;;;;;;;;20.00;99.90;;;;;;4954393;29;19922;-69
2021/05/30 07:43:44;;;;;;;;;;;19.90;99.90;;;;;;4952353;29;19949;-70
2021/05/30 07:46:10;;;;;;;;;;;20.40;99.90;;;;;;4952999;28;19929;-69
2021/05/30 07:48:38;;;;;;;;;;;20.30;99.90;;;;;;4954007;29;20283;-69
2021/05/30 07:51:05;;;;;;;;;;;20.70;99.90;;;;;;4953565;28;19926;-70
2021/05/30 07:53:31;;;;;;;;;;;20.40;99.90;;;;;;4953669;29;20418;-69
2021/05/30 07:55:57;;;;;;;;;;;20.40;99.90;;;;;;4953945;29;20436;-69
2021/05/30 07:58:24;;;;;;;;;;;20.60;99.90;;;;;;4953835;29;19966;-69
2021/05/30 08:00:51;;;;;;;;;;;21.10;99.90;;;;;;4952693;28;20025;-69
2021/05/30 08:03:18;;;;;;;;;;;20.70;99.90;;;;;;4951526;29;19938;-69
2021/05/30 08:05:44;;;;;;;;;;;20.50;99.90;;;;;;4951424;29;19922;-69
2021/05/30 08:08:11;;;;;;;;;;;20.80;99.90;;;;;;4952478;29;19922;-72
2021/05/30 08:10:37;;;;;;;;;;;21.60;99.90;;;;;;4953373;28;19922;-69
2021/05/30 08:13:04;;;;;;;;;;;20.70;99.90;;;;;;4953303;29;20338;-69
2021/05/30 08:15:30;;;;;;;;;;;20.90;99.90;;;;;;4952964;28;19923;-69
2021/05/30 08:17:57;;;;;;;;;;;20.70;99.90;;;;;;4952539;29;19922;-69
2021/05/30 08:20:24;;;;;;;;;;;20.90;99.90;;;;;;4953510;28;20021;-69
2021/05/30 08:22:51;;;;;;;;;;;21.30;99.90;;;;;;4952527;29;19922;-70
2021/05/30 08:25:18;;;;;;;;;;;22.00;99.80;;;;;;4943910;28;19932;-70
2021/05/30 08:27:45;;;;;;;;;;;22.40;98.50;;;;;;4952225;29;19923;-71
2021/05/30 08:30:12;;;;;;;;;;;22.70;98.00;;;;;;4952290;29;20366;-71
2021/05/30 08:32:38;;;;;;;;;;;21.80;97.70;;;;;;4953013;29;19926;-71
2021/05/30 08:35:06;;;;;;;;;;;21.60;98.60;;;;;;4953106;28;19922;-71
2021/05/30 08:37:33;;;;;;;;;;;20.80;98.70;;;;;;4953477;29;19926;-72
2021/05/30 08:39:59;;;;;;;;;;;21.30;99.90;;;;;;4952873;28;19930;-72
2021/05/30 08:42:26;;;;;;;;;;;22.20;98.20;;;;;;4952804;29;19923;-72
2021/05/30 08:44:55;;;;;;;;;;;22.50;96.10;;;;;;4952225;29;19926;-72
2021/05/30 08:47:21;;;;;;;;;;;22.30;96.50;;;;;;4940291;29;19954;-71
2021/05/30 08:49:48;;;;;;;;;;;21.90;96.70;;;;;;4947269;28;19930;-72
2021/05/30 08:52:16;;;;;;;;;;;21.60;97.60;;;;;;4952857;29;19970;-71
2021/05/30 08:54:43;;;;;;;;;;;22.10;96.70;;;;;;4953088;29;20297;-70
2021/05/30 08:57:09;;;;;;;;;;;22.60;96.40;;;;;;4952484;29;19929;-70
2021/05/30 08:59:37;;;;;;;;;;;22.50;96.00;;;;;;4946508;29;19923;-72
2021/05/30 09:02:09;;;;;;;;;;;23.40;95.60;;;;;;4934125;29;19958;-76
2021/05/30 09:04:36;;;;;;;;;;;23.90;94.00;;;;;;4943042;29;20065;-73
2021/05/30 09:07:03;;;;;;;;;;;23.80;93.80;;;;;;4952705;29;20020;-73
2021/05/30 09:09:37;;;;;;;;;;;22.60;95.00;;;;;;4945648;28;20025;-73
2021/05/30 09:12:05;;;;;;;;;;;23.40;94.70;;;;;;4951180;28;19969;-73
2021/05/30 09:14:39;;;;;;;;;;;23.40;93.30;;;;;;4947483;28;20435;-73
2021/05/30 09:17:07;;;;;;;;;;;23.10;93.30;;;;;;4952566;29;20033;-73
2021/05/30 09:19:35;;;;;;;;;;;23.70;93.30;;;;;;4954950;29;19933;-73
2021/05/30 09:22:28;;;;;;;;;;;24.10;91.80;;;;;;4948771;28;19971;-72
2021/05/30 09:25:07;;;;;;;;;;;24.10;91.80;;;;;;4918709;28;20382;-72
2021/05/30 09:27:34;;;;;;;;;;;24.40;91.30;;;;;;4952501;29;19933;-73
2021/05/30 09:30:24;;;;;;;;;;;24.00;91.00;;;;;;4951661;29;19922;-73
2021/05/30 09:32:55;;;;;;;;;;;23.80;92.20;;;;;;4941522;28;19969;-73
2021/05/30 09:35:21;;;;;;;;;;;22.40;93.00;;;;;;4952364;29;19923;-75
2021/05/30 09:37:56;;;;;;;;;;;22.80;94.90;;;;;;4932126;29;19931;-73
2021/05/30 09:40:33;;;;;;;;;;;23.00;93.80;;;;;;4934232;29;19958;-73
2021/05/30 09:43:07;;;;;;;;;;;23.40;93.00;;;;;;4941244;29;19926;-79
2021/05/30 09:45:34;;;;;;;;;;;24.00;90.30;;;;;;4951627;29;19922;-77
2021/05/30 09:48:01;;;;;;;;;;;23.80;91.00;;;;;;4947598;29;19922;-75
2021/05/30 09:50:35;;;;;;;;;;;24.00;90.00;;;;;;4945219;29;19926;-76
2021/05/30 09:53:02;;;;;;;;;;;23.30;90.30;;;;;;4945834;29;19959;-78
2021/05/30 09:55:32;;;;;;;;;;;24.30;88.90;;;;;;4949417;29;19949;-76
2021/05/30 09:58:05;;;;;;;;;;;23.90;89.60;;;;;;4951292;28;20329;-77
2021/05/30 10:00:31;;;;;;;;;;;23.90;90.00;;;;;;4949445;28;19930;-77
2021/05/30 10:02:57;;;;;;;;;;;23.30;88.10;;;;;;4950718;29;19927;-76
2021/05/30 10:05:24;;;;;;;;;;;23.20;87.80;;;;;;4951499;29;20121;-75
2021/05/30 10:07:50;;;;;;;;;;;22.60;89.50;;;;;;4950174;29;19961;-75
2021/05/30 10:10:17;;;;;;;;;;;22.70;89.80;;;;;;4947521;29;19929;-77
2021/05/30 10:12:44;;;;;;;;;;;22.60;88.70;;;;;;4944888;28;20299;-74
2021/05/30 10:15:11;;;;;;;;;;;23.40;88.10;;;;;;4949926;29;20006;-74
2021/05/30 10:17:39;;;;;;;;;;;23.70;86.80;;;;;;4953459;29;19970;-74
2021/05/30 10:20:07;;;;;;;;;;;23.70;84.60;;;;;;4950294;28;19958;-75
2021/05/30 10:22:33;;;;;;;;;;;23.40;82.30;;;;;;4955424;29;20045;-75
2021/05/30 10:25:00;;;;;;;;;;;22.50;82.90;;;;;;4952548;29;19929;-75
2021/05/30 10:27:27;;;;;;;;;;;23.00;77.70;;;;;;4954205;28;19941;-74
2021/05/30 10:30:13;;;;;;;;;;;22.90;77.60;;;;;;4953841;29;20394;-74
2021/05/30 10:32:41;;;;;;;;;;;22.70;75.20;;;;;;4952984;29;19922;-73
2021/05/30 10:35:17;;;;;;;;;;;23.00;75.30;;;;;;4951492;29;19976;-74
2021/05/30 10:37:45;;;;;;;;;;;23.50;73.80;;;;;;4951361;29;20078;-74
2021/05/30 10:40:28;;;;;;;;;;;24.80;71.70;;;;;;4952134;28;19929;-72
2021/05/30 10:43:14;;;;;;;;;;;23.60;72.90;;;;;;4952724;29;20006;-73
2021/05/30 10:45:55;;;;;;;;;;;22.70;74.70;;;;;;4955050;29;20430;-73
2021/05/30 10:48:22;;;;;;;;;;;22.40;75.70;;;;;;4954008;29;20486;-74
2021/05/30 10:50:55;;;;;;;;;;;23.10;75.60;;;;;;4950871;28;20362;-72
2021/05/30 10:53:34;;;;;;;;;;;22.80;75.10;;;;;;4952281;29;19929;-73
2021/05/30 10:56:13;;;;;;;;;;;23.10;71.40;;;;;;4958066;29;19922;-73
2021/05/30 10:58:40;;;;;;;;;;;23.00;70.60;;;;;;4955732;29;19930;-73
2021/05/30 11:01:06;;;;;;;;;;;22.40;71.50;;;;;;4957533;29;20197;-73
2021/05/30 11:03:33;;;;;;;;;;;22.60;70.80;;;;;;4953913;29;19977;-73
2021/05/30 11:06:00;;;;;;;;;;;22.50;73.40;;;;;;4952150;29;19922;-73
2021/05/30 11:08:45;;;;;;;;;;;23.10;70.00;;;;;;4956652;28;19930;-72
2021/05/30 11:11:18;;;;;;;;;;;22.80;70.80;;;;;;4951883;28;19926;-74
2021/05/30 11:13:48;;;;;;;;;;;22.40;71.60;;;;;;4952352;28;20093;-74
2021/05/30 11:16:14;;;;;;;;;;;22.50;71.50;;;;;;4951716;29;19922;-73
2021/05/30 11:18:42;;;;;;;;;;;23.00;70.40;;;;;;4954337;29;19929;-73
2021/05/30 11:21:08;;;;;;;;;;;24.20;67.50;;;;;;4953368;28;19930;-74
2021/05/30 11:23:35;;;;;;;;;;;24.00;66.90;;;;;;4955383;28;19950;-74
2021/05/30 11:26:01;;;;;;;;;;;24.20;68.80;;;;;;4954913;29;19923;-73
2021/05/30 11:28:29;;;;;;;;;;;24.10;68.80;;;;;;4951446;29;19930;-73
2021/05/30 11:30:58;;;;;;;;;;;23.80;67.90;;;;;;4953694;29;19974;-71
2021/05/30 11:33:31;;;;;;;;;;;23.20;68.30;;;;;;4953140;29;20322;-71
2021/05/30 11:35:59;;;;;;;;;;;22.80;70.20;;;;;;4951852;29;19961;-71
2021/05/30 11:38:32;;;;;;;;;;;23.10;68.90;;;;;;4953070;29;19923;-71
2021/05/30 11:41:07;;;;;;;;;;;23.00;69.60;;;;;;4953239;28;20291;-72
2021/05/30 11:43:33;;;;;;;;;;;23.70;68.80;;;;;;4942093;29;20381;-71
2021/05/30 11:46:09;;;;;;;;;;;23.30;68.80;;;;;;4953991;29;19930;-71
2021/05/30 11:48:36;;;;;;;;;;;23.10;71.40;;;;;;4951447;29;19930;-71
2021/05/30 11:51:03;;;;;;;;;;;22.90;72.50;;;;;;4950373;28;19926;-71
2021/05/30 11:53:30;;;;;;;;;;;22.20;72.90;;;;;;4950227;29;20025;-71
2021/05/30 11:55:57;;;;;;;;;;;22.80;71.90;;;;;;4954021;28;19923;-71
2021/05/30 11:58:24;;;;;;;;;;;23.20;70.60;;;;;;4951433;29;19937;-72
2021/05/30 12:00:54;;;;;;;;;;;23.70;70.70;;;;;;4951431;29;19930;-72
2021/05/30 12:03:20;;;;;;;;;;;23.40;71.40;;;;;;4954346;29;19964;-71
2021/05/30 12:05:46;;;;;;;;;;;23.20;69.10;;;;;;4952752;29;20025;-71
2021/05/30 12:08:15;;;;;;;;;;;23.20;69.10;;;;;;4953642;29;20330;-71
2021/05/30 12:10:48;;;;;;;;;;;23.30;69.40;;;;;;4953127;29;19926;-72
2021/05/30 12:13:24;;;;;;;;;;;23.80;67.50;;;;;;4952722;29;19922;-72
2021/05/30 12:15:50;;;;;;;;;;;24.10;69.60;;;;;;4952263;29;20445;-71
2021/05/30 12:18:17;;;;;;;;;;;24.50;69.00;;;;;;4953141;28;19922;-73
2021/05/30 12:20:44;;;;;;;;;;;26.30;66.60;;;;;;4951749;28;19926;-72
2021/05/30 12:23:11;;;;;;;;;;;25.80;68.10;;;;;;4949878;29;19923;-73
2021/05/30 12:25:47;;;;;;;;;;;26.90;65.30;;;;;;4952951;28;19973;-73
2021/05/30 12:28:14;;;;;;;;;;;25.70;65.90;;;;;;4950808;28;19969;-73
2021/05/30 12:30:40;;;;;;;;;;;25.60;65.40;;;;;;4950591;29;19929;-72
2021/05/30 12:33:06;;;;;;;;;;;24.70;66.50;;;;;;4954894;29;19985;-72
2021/05/30 12:35:43;;;;;;;;;;;24.50;68.60;;;;;;4955679;28;19977;-72
2021/05/30 12:38:10;;;;;;;;;;;24.70;66.00;;;;;;4955724;28;19926;-72
2021/05/30 12:40:37;;;;;;;;;;;23.80;66.50;;;;;;4953634;28;20306;-72
2021/05/30 12:43:04;;;;;;;;;;;23.90;67.40;;;;;;4954621;28;19926;-72
2021/05/30 12:45:32;;;;;;;;;;;24.30;65.90;;;;;;4953523;28;20065;-73
2021/05/30 12:47:58;;;;;;;;;;;24.80;65.80;;;;;;4955569;28;19926;-72
2021/05/30 12:50:24;;;;;;;;;;;23.60;65.50;;;;;;4957784;28;19925;-72
2021/05/30 12:52:52;;;;;;;;;;;23.80;65.90;;;;;;4968607;29;19926;-73
2021/05/30 12:55:19;;;;;;;;;;;23.40;68.60;;;;;;4969302;28;19926;-73
2021/05/30 12:57:48;;;;;;;;;;;22.90;67.90;;;;;;4972121;28;19989;-71
2021/05/30 13:00:26;;;;;;;;;;;23.70;67.20;;;;;;4957985;28;19926;-72
2021/05/30 13:02:56;;;;;;;;;;;23.60;68.20;;;;;;4953802;29;19922;-72
2021/05/30 13:05:31;;;;;;;;;;;24.70;67.10;;;;;;4954498;29;19926;-73
2021/05/30 13:07:57;;;;;;;;;;;23.90;68.90;;;;;;4969864;28;19926;-73
2021/05/30 13:10:23;;;;;;;;;;;23.80;70.50;;;;;;4972661;29;19910;-72
2021/05/30 13:12:50;;;;;;;;;;;23.80;69.30;;;;;;4973578;28;20014;-72
2021/05/30 13:15:18;;;;;;;;;;;24.00;67.20;;;;;;4972238;29;19926;-72
2021/05/30 13:17:48;;;;;;;;;;;24.30;66.60;;;;;;4970839;29;19911;-73
2021/05/30 13:20:16;;;;;;;;;;;23.80;67.80;;;;;;4962561;29;19969;-72
2021/05/30 13:22:53;;;;;;;;;;;24.70;66.20;;;;;;4944750;28;20673;-72
2021/05/30 13:25:24;;;;;;;;;;;24.90;67.50;;;;;;4951188;28;19923;-72
2021/05/30 13:27:50;;;;;;;;;;;25.70;66.40;;;;;;4951256;29;20169;-72
2021/05/30 13:30:17;;;;;;;;;;;24.20;69.10;;;;;;4948937;29;19969;-72
2021/05/30 13:32:44;;;;;;;;;;;24.00;68.60;;;;;;4952217;28;19933;-72
2021/05/30 13:35:11;;;;;;;;;;;24.70;69.80;;;;;;4947484;28;20342;-72
2021/05/30 13:37:37;;;;;;;;;;;24.00;67.40;;;;;;4951717;28;20073;-72
2021/05/30 13:40:05;;;;;;;;;;;24.00;67.20;;;;;;4951324;28;19926;-72
2021/05/30 13:42:31;;;;;;;;;;;24.50;68.00;;;;;;4948896;28;19930;-72
2021/05/30 13:44:58;;;;;;;;;;;24.40;67.30;;;;;;4950126;28;19929;-73
2021/05/30 13:47:25;;;;;;;;;;;23.80;66.40;;;;;;4949208;28;19922;-72
2021/05/30 13:49:53;;;;;;;;;;;24.80;65.60;;;;;;4948052;29;19927;-73
2021/05/30 13:52:20;;;;;;;;;;;24.00;67.40;;;;;;4948629;28;19930;-73
2021/05/30 13:54:46;;;;;;;;;;;23.80;67.40;;;;;;4952273;28;19926;-74
2021/05/30 13:57:13;;;;;;;;;;;23.50;69.10;;;;;;4950415;29;19926;-72
2021/05/30 13:59:39;;;;;;;;;;;24.00;71.50;;;;;;4950842;28;19926;-72
2021/05/30 14:02:06;;;;;;;;;;;23.90;69.30;;;;;;4949678;28;19922;-73
2021/05/30 14:04:33;;;;;;;;;;;23.60;68.10;;;;;;4950893;28;20455;-73
2021/05/30 14:07:00;;;;;;;;;;;23.60;70.80;;;;;;4945306;28;19993;-72
2021/05/30 14:09:27;;;;;;;;;;;23.30;70.50;;;;;;4936241;29;19930;-72
2021/05/30 14:11:53;;;;;;;;;;;22.80;72.20;;;;;;4951064;28;20017;-72
2021/05/30 14:14:20;;;;;;;;;;;22.60;74.20;;;;;;4949639;29;19927;-71
2021/05/30 14:16:46;;;;;;;;;;;23.00;73.30;;;;;;4952578;29;19922;-72
2021/05/30 14:19:12;;;;;;;;;;;23.10;70.90;;;;;;4950776;28;19922;-73
2021/05/30 14:21:39;;;;;;;;;;;23.30;70.50;;;;;;4944806;28;19930;-72
2021/05/30 14:24:07;;;;;;;;;;;23.10;69.80;;;;;;4949772;28;19922;-72
2021/05/30 14:26:33;;;;;;;;;;;23.40;69.80;;;;;;4952541;29;19966;-72
2021/05/30 14:29:00;;;;;;;;;;;23.60;66.30;;;;;;4952637;28;19934;-72
2021/05/30 14:31:26;;;;;;;;;;;23.60;67.20;;;;;;4950621;28;19950;-72
2021/05/30 14:33:52;;;;;;;;;;;23.20;68.80;;;;;;4950909;28;19945;-72
2021/05/30 14:36:19;;;;;;;;;;;23.10;70.50;;;;;;4951445;29;19927;-72
2021/05/30 14:38:45;;;;;;;;;;;22.70;71.70;;;;;;4950312;28;19930;-72
2021/05/30 14:41:13;;;;;;;;;;;22.40;74.00;;;;;;4949958;29;19922;-73
2021/05/30 14:43:39;;;;;;;;;;;21.90;74.50;;;;;;4951314;28;19926;-71
2021/05/30 14:46:05;;;;;;;;;;;22.00;75.00;;;;;;4950313;28;19927;-72
2021/05/30 14:48:32;;;;;;;;;;;21.70;76.10;;;;;;4952040;28;20429;-74
2021/05/30 14:50:58;;;;;;;;;;;21.60;77.30;;;;;;4952406;28;19944;-72
2021/05/30 14:53:24;;;;;;;;;;;21.80;77.30;;;;;;4966760;29;19932;-72
2021/05/30 14:55:51;;;;;;;;;;;21.90;75.20;;;;;;4974835;29;19929;-72
2021/05/30 14:58:18;;;;;;;;;;;22.30;75.80;;;;;;4974837;28;19922;-72
2021/05/30 15:00:44;;;;;;;;;;;22.10;75.30;;;;;;4969949;29;19995;-72
2021/05/30 15:03:11;;;;;;;;;;;22.40;74.20;;;;;;4977484;28;19922;-73
2021/05/30 15:05:40;;;;;;;;;;;22.30;74.50;;;;;;4976403;29;19932;-72
2021/05/30 15:08:06;;;;;;;;;;;22.00;73.10;;;;;;4972837;28;20147;-72
2021/05/30 15:10:35;;;;;;;;;;;21.70;74.00;;;;;;4963402;28;19961;-73
2021/05/30 15:13:02;;;;;;;;;;;22.10;74.10;;;;;;4957443;28;19922;-73
2021/05/30 15:15:29;;;;;;;;;;;22.00;75.90;;;;;;4953755;28;20007;-72
2021/05/30 15:17:55;;;;;;;;;;;21.90;75.90;;;;;;4952415;29;19930;-72
2021/05/30 15:20:22;;;;;;;;;;;21.70;75.20;;;;;;4954538;29;19973;-73
2021/05/30 15:22:50;;;;;;;;;;;21.90;76.80;;;;;;4950210;29;20438;-73
2021/05/30 15:25:16;;;;;;;;;;;22.00;77.20;;;;;;4954034;28;19939;-72
2021/05/30 15:27:43;;;;;;;;;;;22.00;78.10;;;;;;4954938;29;19922;-73
2021/05/30 15:30:11;;;;;;;;;;;21.90;78.20;;;;;;4954576;28;19950;-74
2021/05/30 15:32:39;;;;;;;;;;;21.70;76.20;;;;;;4954588;28;20298;-73
2021/05/30 15:35:06;;;;;;;;;;;21.60;76.60;;;;;;4953394;29;19977;-72
2021/05/30 15:37:32;;;;;;;;;;;21.90;76.70;;;;;;4954588;29;20036;-73
2021/05/30 15:39:59;;;;;;;;;;;21.90;75.80;;;;;;4955339;29;19969;-74
2021/05/30 15:42:25;;;;;;;;;;;22.20;74.90;;;;;;4953117;29;20013;-73
2021/05/30 15:44:51;;;;;;;;;;;21.80;75.00;;;;;;4952875;29;19980;-74
2021/05/30 15:47:17;;;;;;;;;;;22.00;76.60;;;;;;4954478;28;19969;-73
2021/05/30 15:49:45;;;;;;;;;;;22.20;76.30;;;;;;4957605;29;19926;-72
2021/05/30 15:52:11;;;;;;;;;;;22.20;77.00;;;;;;4953890;29;19922;-72
2021/05/30 15:54:38;;;;;;;;;;;22.10;77.30;;;;;;4938431;29;19922;-72
2021/05/30 15:57:05;;;;;;;;;;;22.20;76.10;;;;;;4939666;29;19926;-74
2021/05/30 15:59:32;;;;;;;;;;;22.40;76.20;;;;;;4953048;28;19929;-72
2021/05/30 16:01:59;;;;;;;;;;;22.30;77.40;;;;;;4953726;29;19930;-72
2021/05/30 16:04:25;;;;;;;;;;;22.10;77.10;;;;;;4954265;28;20477;-72
2021/05/30 16:06:53;;;;;;;;;;;21.90;77.40;;;;;;4953931;28;19922;-72
2021/05/30 16:09:19;;;;;;;;;;;21.40;77.30;;;;;;4953589;28;19937;-73
2021/05/30 16:11:45;;;;;;;;;;;21.20;79.80;;;;;;4951891;28;19929;-73
2021/05/30 16:14:12;;;;;;;;;;;21.10;79.40;;;;;;4953720;29;20294;-72
2021/05/30 16:16:39;;;;;;;;;;;21.20;79.30;;;;;;4953564;29;19998;-73
2021/05/30 16:19:05;;;;;;;;;;;21.10;79.30;;;;;;4950422;28;20303;-72
2021/05/30 16:21:33;;;;;;;;;;;21.30;79.70;;;;;;4952059;28;19926;-73
2021/05/30 16:24:00;;;;;;;;;;;21.60;77.00;;;;;;4952412;28;19930;-73
2021/05/30 16:26:27;;;;;;;;;;;21.50;75.30;;;;;;4953433;29;19965;-73
2021/05/30 16:28:53;;;;;;;;;;;21.60;75.30;;;;;;4953227;28;19926;-73
2021/05/30 16:31:20;;;;;;;;;;;21.80;74.90;;;;;;4953681;29;19937;-72
2021/05/30 16:33:46;;;;;;;;;;;22.00;74.50;;;;;;4952146;29;19922;-73
2021/05/30 16:36:12;;;;;;;;;;;22.00;74.30;;;;;;4943372;29;19998;-72
2021/05/30 16:38:39;;;;;;;;;;;21.90;75.00;;;;;;4949558;29;19936;-73
2021/05/30 16:41:06;;;;;;;;;;;21.90;76.00;;;;;;4952217;29;19961;-73
2021/05/30 16:43:32;;;;;;;;;;;21.80;74.80;;;;;;4953948;29;20021;-72
2021/05/30 16:45:59;;;;;;;;;;;21.80;75.90;;;;;;4953455;29;20441;-73
2021/05/30 16:48:27;;;;;;;;;;;21.60;77.90;;;;;;4951440;29;19962;-72
2021/05/30 16:50:53;;;;;;;;;;;21.50;78.00;;;;;;4953387;28;19926;-72
2021/05/30 16:53:20;;;;;;;;;;;21.40;77.00;;;;;;4952735;29;19926;-73
2021/05/30 16:55:46;;;;;;;;;;;21.30;75.80;;;;;;4952992;29;20224;-73
2021/05/30 16:58:13;;;;;;;;;;;21.30;76.40;;;;;;4953632;28;19922;-73
2021/05/30 17:00:40;;;;;;;;;;;21.20;77.20;;;;;;4952947;28;20291;-72
2021/05/30 17:03:06;;;;;;;;;;;21.20;77.60;;;;;;4952564;28;20017;-72
2021/05/30 17:05:32;;;;;;;;;;;21.10;78.30;;;;;;4953079;29;19930;-73
2021/05/30 17:07:59;;;;;;;;;;;20.90;76.80;;;;;;4952793;29;20469;-72
2021/05/30 17:10:25;;;;;;;;;;;20.90;77.60;;;;;;4952297;28;19976;-73
2021/05/30 17:12:52;;;;;;;;;;;20.80;78.20;;;;;;4953082;29;19954;-73
2021/05/30 17:15:24;;;;;;;;;;;20.80;77.90;;;;;;4952305;28;19922;-73
2021/05/30 17:17:50;;;;;;;;;;;20.90;77.90;;;;;;4952294;28;19923;-72
2021/05/30 17:20:17;;;;;;;;;;;20.90;79.00;;;;;;4953827;28;20257;-72
2021/05/30 17:22:44;;;;;;;;;;;20.90;79.20;;;;;;4952966;29;20290;-72
2021/05/30 17:25:10;;;;;;;;;;;20.90;79.00;;;;;;4953184;29;20013;-73
2021/05/30 17:27:37;;;;;;;;;;;21.00;79.70;;;;;;4952548;29;19981;-71
2021/05/30 17:30:04;;;;;;;;;;;21.00;80.00;;;;;;4953422;28;19922;-72
2021/05/30 17:32:31;;;;;;;;;;;20.90;79.30;;;;;;4953113;28;19922;-73
2021/05/30 17:34:57;;;;;;;;;;;21.00;79.80;;;;;;4951478;28;19926;-73
2021/05/30 17:37:24;;;;;;;;;;;20.90;79.30;;;;;;4952017;29;19961;-73
2021/05/30 17:39:50;;;;;;;;;;;20.90;80.30;;;;;;4933853;29;20398;-72
2021/05/30 17:42:17;;;;;;;;;;;20.80;80.50;;;;;;4934710;29;19927;-73
2021/05/30 17:44:44;;;;;;;;;;;20.90;81.40;;;;;;4943040;29;19945;-69
2021/05/30 17:47:10;;;;;;;;;;;20.90;81.40;;;;;;4951611;29;19923;-72
2021/05/30 17:49:37;;;;;;;;;;;20.70;80.80;;;;;;4952388;29;20342;-72
2021/05/30 17:52:04;;;;;;;;;;;20.60;79.80;;;;;;4948020;29;20372;-72
2021/05/30 17:54:30;;;;;;;;;;;20.50;80.10;;;;;;4951136;28;20378;-72
2021/05/30 17:56:57;;;;;;;;;;;20.30;81.10;;;;;;4950094;28;19922;-72
2021/05/30 17:59:23;;;;;;;;;;;20.10;82.10;;;;;;4947863;28;19972;-72
2021/05/30 18:01:52;;;;;;;;;;;19.90;83.70;;;;;;4951552;29;19938;-73
2021/05/30 18:04:20;;;;;;;;;;;19.80;84.40;;;;;;4954995;29;19989;-72
2021/05/30 18:06:50;;;;;;;;;;;19.60;85.50;;;;;;4950486;29;20408;-71
2021/05/30 18:09:16;;;;;;;;;;;19.60;85.30;;;;;;4949362;29;19926;-71
2021/05/30 18:11:43;;;;;;;;;;;19.50;85.50;;;;;;4949643;29;19922;-72
2021/05/30 18:14:09;;;;;;;;;;;19.50;85.60;;;;;;4950977;29;19972;-72
2021/05/30 18:16:36;;;;;;;;;;;19.40;85.20;;;;;;4951375;29;20409;-72
2021/05/30 18:19:02;;;;;;;;;;;19.40;86.10;;;;;;4951463;28;20322;-72
2021/05/30 18:21:30;;;;;;;;;;;19.30;85.70;;;;;;4947780;28;20077;-72
2021/05/30 18:23:57;;;;;;;;;;;19.40;85.50;;;;;;4950825;29;19929;-73
2021/05/30 18:26:24;;;;;;;;;;;19.40;85.60;;;;;;4944883;29;19950;-72
2021/05/30 18:28:53;;;;;;;;;;;19.30;86.10;;;;;;4951726;28;20387;-72
2021/05/30 18:31:19;;;;;;;;;;;19.30;86.50;;;;;;4948721;29;20359;-71
2021/05/30 18:33:47;;;;;;;;;;;19.20;86.80;;;;;;4950909;29;20428;-72
2021/05/30 18:36:14;;;;;;;;;;;19.10;87.60;;;;;;4949418;29;19962;-71
2021/05/30 18:38:41;;;;;;;;;;;19.10;87.50;;;;;;4949583;28;19922;-71
2021/05/30 18:41:09;;;;;;;;;;;19.10;88.30;;;;;;4938293;29;19929;-71
2021/05/30 18:43:36;;;;;;;;;;;19.00;87.90;;;;;;4951761;29;19922;-72
2021/05/30 18:46:03;;;;;;;;;;;18.90;88.80;;;;;;4950941;29;20496;-72
2021/05/30 18:48:30;;;;;;;;;;;18.80;88.80;;;;;;4941195;29;20507;-72
2021/05/30 18:53:41;;;;;;;;;;;18.60;90.00;;;;;;4951308;28;19918;-72
2021/05/30 18:56:07;;;;;;;;;;;18.60;90.10;;;;;;4950467;29;20535;-72
2021/05/30 18:58:36;;;;;;;;;;;18.50;90.30;;;;;;4951095;29;19922;-73
2021/05/30 19:01:03;;;;;;;;;;;18.40;90.40;;;;;;4950190;28;19922;-72
2021/05/30 19:03:30;;;;;;;;;;;18.40;90.50;;;;;;4952287;28;20421;-69
2021/05/30 19:05:57;;;;;;;;;;;18.20;91.20;;;;;;4951819;29;19941;-69
2021/05/30 19:08:23;;;;;;;;;;;18.20;91.80;;;;;;4953166;28;19954;-68
2021/05/30 19:10:49;;;;;;;;;;;18.10;92.20;;;;;;4952000;29;20037;-68
2021/05/30 19:13:16;;;;;;;;;;;17.90;92.60;;;;;;4950969;29;20436;-68
2021/05/30 19:15:43;;;;;;;;;;;17.70;93.10;;;;;;4951224;29;19926;-68